ジュネーヴ・コアントラン国際空港の過去48時間の天気

ジュネーヴ・コアントラン国際空港 (Geneve-Cointrin)

現在時刻: 6/3 16:00 CEST (6/3 14:00 UTC) 以下の時間は現地時間です。

過去48時間のMETAR気象情報
時間 風向 風速(m/s) 視程 気温(℃) 湿度(%) 気圧(hPa) 天気現象
3 15:50 西 3 10km以上 22 53 1006 周辺で雷
3 15:20 南西 5 10km以上 21 49 1006 弱い雨 周辺で雷
3 14:50 西南西 5 10km以上 23 50 1006 弱い雨 周辺で雷
3 14:20 西南西 4 10km以上 25 39 1006
3 13:50 西 3 10km以上 26 39 1006 周辺で雷
3 13:20 西北西 3 10km以上 24 54 1007
3 12:50 南西 3 10km以上 25 44 1007 周辺で雷
3 12:20 南南西 3 10km以上 24 47 1008
3 11:50 南西 3 10km以上 24 47 1008
3 11:20 不定 1 10km以上 22 53 1008
3 10:50 西南西 2 10km以上 22 53 1009
3 10:20 不定 2 10km以上 22 53 1009
3 09:50 不定 1 10km以上 20 56 1009
3 09:20 不定 1 10km以上 19 60 1010
3 08:50 不定 1 10km以上 19 60 1010
3 08:20 不定 1 10km以上 18 64 1010
3 07:50 不定 1 10km以上 16 68 1010
3 07:20 静穏 0 10km以上 15 67 1011
3 06:50 不定 1 10km以上 14 72 1010
3 06:20 不定 1 10km以上 12 82 1011
3 05:50 北西 1 10km以上 12 82 1011
3 05:20 不定 1 10km以上 12 82 1011
3 04:50 不定 1 10km以上 13 77 1011
3 04:20 不定 1 10km以上 13 77 1011
3 03:50 不定 1 10km以上 13 77 1011
3 03:20 不定 1 10km以上 13 82 1012
3 02:50 不定 1 10km以上 14 77 1012
3 02:20 不定 1 10km以上 14 72 1012
3 01:50 不定 1 10km以上 15 72 1012
3 01:20 不定 1 10km以上 15 67 1012
3 00:50 西北西 1 10km以上 16 63 1012
3 00:20 不定 1 10km以上 17 59 1013
2 23:50 静穏 0 10km以上 18 56 1013
2 23:20 東北東 2 10km以上 19 52 1013
2 22:50 2 10km以上 20 49 1013
2 22:20 2 10km以上 21 46 1013
2 21:50 不定 2 10km以上 21 43 1012
2 21:20 不定 1 10km以上 22 46 1012
2 20:50 不定 1 10km以上 24 44 1012
2 20:20 北東 1 10km以上 25 32 1012
2 19:50 不定 1 10km以上 26 37 1012
2 19:20 2 10km以上 26 34 1012
2 18:50 東北東 2 10km以上 26 32 1013
2 18:20 3 10km以上 26 32 1013
2 17:50 東北東 4 10km以上 26 32 1013
2 17:20 3 10km以上 26 30 1013
2 16:50 4 10km以上 25 30 1014
2 16:20 3 10km以上 25 32 1014
2 15:50 3 10km以上 26 32 1014
2 15:20 不定 2 10km以上 25 36 1015 周辺で雷
2 14:50 北東 3 10km以上 25 36 1015
2 14:20 北北東 4 10km以上 25 32 1015
2 13:50 北東 4 10km以上 24 34 1016
2 13:20 北東 3 10km以上 24 34 1016
2 12:50 不定 2 10km以上 23 38 1016
2 12:20 北北東 3 10km以上 23 41 1017
2 11:50 東北東 3 10km以上 22 43 1017
2 11:20 東北東 3 10km以上 21 46 1017
2 10:50 不定 2 10km以上 21 53 1017
2 10:20 不定 2 10km以上 20 56 1017
2 09:50 不定 2 10km以上 20 56 1017
2 09:20 不定 1 10km以上 19 60 1018
2 08:50 不定 1 10km以上 18 64 1018
2 08:20 不定 1 10km以上 17 68 1018
2 07:50 南西 1 10km以上 16 72 1017
2 07:20 不定 1 10km以上 15 77 1018
2 06:50 不定 1 10km以上 14 82 1018
2 06:20 北北西 1 10km以上 13 88 1017
2 05:50 西 1 10km以上 13 88 1017
2 05:20 西 1 10km以上 14 82 1017
2 04:50 西 2 10km以上 15 77 1017
2 04:20 西北西 2 10km以上 14 82 1017
2 03:50 不定 1 10km以上 15 77 1017
2 03:20 不定 1 10km以上 15 77 1018
2 02:50 西 2 10km以上 16 72 1018
2 02:20 西南西 4 10km以上 17 72 1018
2 01:50 西南西 6 10km以上 18 64 1018
2 01:20 西南西 6 10km以上 18 68 1018
2 00:50 西南西 4 10km以上 17 72 1018
2 00:20 南西 3 10km以上 17 72 1018
1 23:50 南西 4 10km以上 17 72 1018
1 23:20 不定 1 10km以上 17 72 1017
1 22:50 西 1 10km以上 17 68 1017
1 22:20 不定 1 10km以上 18 68 1017
1 21:50 不定 1 10km以上 19 60 1016
1 21:20 不定 1 10km以上 20 56 1016
1 20:50 不定 1 10km以上 21 53 1016
1 20:20 北西 1 10km以上 22 43 1016
1 19:50 西 1 10km以上 23 47 1016
1 19:20 不定 1 10km以上 23 41 1016
1 18:50 北北東 1 10km以上 24 29 1016
1 18:20 北東 2 10km以上 24 31 1016
1 17:50 北北東 3 10km以上 25 32 1016
1 17:20 北北東 3 10km以上 25 28 1016
1 16:50 北東 3 10km以上 25 32 1016
1 16:20 東北東 3 10km以上 24 29 1017
LSGG 031350Z 27006KT 9999 VCTS FEW050CB SCT070 BKN090 22/12 Q1006 NOSIG
LSGG 031320Z 22009KT 180V260 9999 -RA VCTS FEW050CB SCT060 BKN080 21/10 Q1006 NOSIG
LSGG 031250Z 25009KT 9999 -RA VCTS FEW040CB SCT050 BKN075 23/12 Q1006 NOSIG
LSGG 031220Z 24008KT 9999 FEW055TCU FEW060 25/10 Q1006 NOSIG
LSGG 031150Z 28006KT 200V330 9999 VCTS FEW055CB FEW060 26/11 Q1006 TEMPO TSRA
LSGG 031120Z 29005KT 220V030 9999 FEW055TCU FEW060 24/14 Q1007 NOSIG
LSGG 031050Z 22006KT 180V290 9999 VCTS FEW045CB FEW050 25/12 Q1007 TEMPO TSRA
LSGG 031020Z 21006KT 170V250 9999 FEW045CB FEW050TCU 24/12 Q1008 TEMPO TSRA
LSGG 030950Z 23006KT 180V280 9999 FEW050TCU 24/12 Q1008 NOSIG
LSGG 030920Z VRB02KT 9999 FEW050 22/12 Q1008 NOSIG
LSGG 030850Z 25003KT 170V310 9999 FEW050 22/12 Q1009 NOSIG
LSGG 030820Z VRB03KT 9999 FEW050 22/12 Q1009 NOSIG
LSGG 030750Z VRB01KT CAVOK 20/11 Q1009 NOSIG
LSGG 030720Z VRB02KT 9999 FEW090 19/11 Q1010 NOSIG
LSGG 030650Z VRB01KT 9999 FEW090 19/11 Q1010 NOSIG
LSGG 030620Z VRB01KT 9999 FEW060 18/11 Q1010 NOSIG
LSGG 030550Z VRB01KT 9999 FEW065 16/10 Q1010 NOSIG
LSGG 030520Z 00000KT 9999 FEW075 15/09 Q1011 NOSIG
LSGG 030450Z VRB01KT 9999 FEW080 14/09 Q1010 NOSIG
LSGG 030420Z VRB01KT 9999 FEW090 12/09 Q1011 NOSIG
LSGG 030350Z 32002KT 9999 FEW090 12/09 Q1011 NOSIG
LSGG 030320Z AUTO VRB01KT CAVOK 12/09 Q1011 NOSIG
LSGG 030250Z AUTO VRB01KT CAVOK 13/09 Q1011 NOSIG
LSGG 030220Z AUTO VRB01KT CAVOK 13/09 Q1011 NOSIG
LSGG 030150Z AUTO VRB02KT 9999 NCD 13/09 Q1011 NOSIG
LSGG 030120Z AUTO VRB02KT 9999 SCT075 BKN085 13/10 Q1012 NOSIG
LSGG 030050Z AUTO VRB01KT 9999 BKN075 14/10 Q1012 NOSIG
LSGG 030020Z AUTO VRB01KT 9999 FEW075 14/09 Q1012 NOSIG
LSGG 022350Z AUTO VRB01KT CAVOK 15/10 Q1012 NOSIG
LSGG 022320Z AUTO VRB01KT CAVOK 15/09 Q1012 NOSIG
LSGG 022250Z AUTO 30002KT CAVOK 16/09 Q1012 NOSIG
LSGG 022220Z AUTO VRB02KT CAVOK 17/09 Q1013 NOSIG
LSGG 022150Z AUTO 00000KT CAVOK 18/09 Q1013 NOSIG
LSGG 022120Z 06003KT CAVOK 19/09 Q1013 NOSIG
LSGG 022050Z 09003KT 350V120 CAVOK 20/09 Q1013 NOSIG
LSGG 022020Z 01003KT 300V050 CAVOK 21/09 Q1013 NOSIG
LSGG 021950Z VRB03KT 9999 FEW080 21/08 Q1012 NOSIG
LSGG 021920Z VRB02KT 9999 FEW080 22/10 Q1012 NOSIG
LSGG 021850Z VRB02KT 9999 FEW080 24/11 Q1012 NOSIG
LSGG 021820Z 04002KT 9999 FEW070 25/07 Q1012 NOSIG
LSGG 021750Z VRB02KT 9999 FEW050 26/10 Q1012 NOSIG
LSGG 021720Z 09003KT 9999 FEW050 26/09 Q1012 NOSIG
LSGG 021650Z 06004KT 020V110 9999 FEW050 26/08 Q1013 NOSIG
LSGG 021620Z 08005KT 9999 FEW045 FEW050TCU 26/08 Q1013 NOSIG
LSGG 021550Z 07007KT 9999 FEW045 FEW050TCU 26/08 Q1013 NOSIG
LSGG 021520Z 08006KT 040V120 9999 FEW045 FEW050TCU 26/07 Q1013 NOSIG
LSGG 021450Z 08007KT 9999 FEW045 FEW050TCU 25/06 Q1014 NOSIG
LSGG 021420Z 08006KT 030V120 9999 FEW045 FEW050TCU 25/07 Q1014 TEMPO TS
LSGG 021350Z 10006KT 050V150 9999 FEW045 FEW050TCU 26/08 Q1014 NOSIG
LSGG 021320Z VRB03KT 9999 VCTS FEW045 FEW050CB 25/09 Q1015 TEMPO TS
LSGG 021250Z 04006KT 010V080 9999 FEW045 FEW050CB 25/09 Q1015 TEMPO TS
LSGG 021220Z 03007KT 360V060 9999 FEW045 FEW050TCU 25/07 Q1015 NOSIG
LSGG 021150Z 05007KT 330V110 9999 FEW045 FEW050TCU 24/07 Q1016 NOSIG
LSGG 021120Z 04005KT 010V090 9999 FEW050 24/07 Q1016 NOSIG
LSGG 021050Z VRB04KT 9999 FEW050 23/08 Q1016 NOSIG
LSGG 021020Z 03006KT 330V070 9999 FEW050 23/09 Q1017 NOSIG
LSGG 020950Z 06006KT 010V090 9999 FEW050 22/09 Q1017 NOSIG
LSGG 020920Z 07005KT 040V120 9999 FEW050 21/09 Q1017 NOSIG
LSGG 020850Z VRB03KT 9999 FEW050 21/11 Q1017 NOSIG
LSGG 020820Z VRB03KT 9999 FEW050 20/11 Q1017 NOSIG
LSGG 020750Z VRB03KT 9999 FEW050 20/11 Q1017 NOSIG
LSGG 020720Z VRB01KT CAVOK 19/11 Q1018 NOSIG
LSGG 020650Z VRB02KT CAVOK 18/11 Q1018 NOSIG
LSGG 020620Z VRB02KT CAVOK 17/11 Q1018 NOSIG
LSGG 020550Z 22002KT CAVOK 16/11 Q1017 NOSIG
LSGG 020520Z VRB01KT CAVOK 15/11 Q1018 NOSIG
LSGG 020450Z VRB01KT CAVOK 14/11 Q1018 NOSIG
LSGG 020420Z 33001KT CAVOK 13/11 Q1017 NOSIG
LSGG 020350Z 26002KT CAVOK 13/11 Q1017 NOSIG
LSGG 020320Z AUTO 26002KT 9999 NCD 14/11 Q1017 NOSIG
LSGG 020250Z AUTO 27004KT CAVOK 15/11 Q1017 NOSIG
LSGG 020220Z AUTO 29004KT CAVOK 14/11 Q1017 NOSIG
LSGG 020150Z AUTO VRB02KT CAVOK 15/11 Q1017 NOSIG
LSGG 020120Z AUTO VRB01KT CAVOK 15/11 Q1018 NOSIG
LSGG 020050Z AUTO 26004KT CAVOK 16/11 Q1018 NOSIG
LSGG 020020Z AUTO 25007KT CAVOK 17/12 Q1018 NOSIG
LSGG 012350Z AUTO 24012KT CAVOK 18/11 Q1018 NOSIG
LSGG 012320Z AUTO 24012KT CAVOK 18/12 Q1018 NOSIG
LSGG 012250Z AUTO 25008KT CAVOK 17/12 Q1018 NOSIG
LSGG 012220Z AUTO 23006KT CAVOK 17/12 Q1018 NOSIG
LSGG 012150Z AUTO 23007KT CAVOK 17/12 Q1018 NOSIG
LSGG 012120Z VRB02KT CAVOK 17/12 Q1017 NOSIG
LSGG 012050Z 27002KT CAVOK 17/11 Q1017 NOSIG
LSGG 012020Z VRB01KT CAVOK 18/12 Q1017 NOSIG
LSGG 011950Z VRB01KT CAVOK 19/11 Q1016 NOSIG
LSGG 011920Z VRB02KT CAVOK 20/11 Q1016 NOSIG
LSGG 011850Z VRB01KT 9999 FEW060 21/11 Q1016 NOSIG
LSGG 011820Z 31002KT 9999 FEW060 22/09 Q1016 NOSIG
LSGG 011750Z 28002KT 9999 FEW060CB 23/11 Q1016 NOSIG
LSGG 011720Z VRB01KT 9999 FEW060CB SCT080 23/09 Q1016 NOSIG
LSGG 011650Z 02002KT 9999 FEW050CB FEW060 24/05 Q1016 NOSIG
LSGG 011620Z 05004KT 360V090 9999 FEW050CB FEW060 24/06 Q1016 NOSIG
LSGG 011550Z 03005KT 9999 FEW050 25/07 Q1016 NOSIG
LSGG 011520Z 03005KT 350V070 9999 FEW050 25/05 Q1016 NOSIG
LSGG 011450Z 04006KT 9999 FEW050 25/07 Q1016 NOSIG
LSGG 011420Z 07006KT 9999 FEW050 24/05 Q1017 NOSIG